Time;durP1;ratioP1;P1;durP2;ratioP2;P2;SDS_P1;SDS_P2;PMS_P1;PMS_P2;Temp;Humidity;BMP_temperature;BMP_pressure;BME280_temperature;BME280_humidity;BME280_pressure;Samples;Min_cycle;Max_cycle;Signal;HPM_P1;HPM_P2
2023/05/14 00:00:35;;;;;;;7.87;4.20;;;;;;;12.21;100.00;101800.59;4961400;28;20182;-72
2023/05/14 00:03:00;;;;;;;8.53;4.40;;;;;;;12.51;100.00;101910.88;4961820;28;20579;-73
2023/05/14 00:05:26;;;;;;;7.27;4.03;;;;;;;12.68;100.00;101895.38;4973904;28;20201;-72
2023/05/14 00:07:51;;;;;;;8.90;4.20;;;;;;;12.65;100.00;101902.81;4960671;28;20289;-72
2023/05/14 00:10:19;;;;;;;6.60;4.50;;;;;;;12.40;100.00;101904.09;4961463;28;20253;-72
2023/05/14 00:12:44;;;;;;;7.50;4.73;;;;;;;12.25;100.00;101852.97;4962570;28;20258;-72
2023/05/14 00:15:10;;;;;;;8.50;4.40;;;;;;;12.73;100.00;101895.63;4962757;28;20999;-72
2023/05/14 00:17:36;;;;;;;6.33;3.70;;;;;;;12.71;100.00;101920.06;4960749;28;20199;-72
2023/05/14 00:20:05;;;;;;;5.20;4.00;;;;;;;12.46;100.00;101895.28;4962777;28;20242;-72
2023/05/14 00:22:31;;;;;;;7.30;4.00;;;;;;;12.40;100.00;101861.88;4960821;28;20936;-72
2023/05/14 00:24:57;;;;;;;9.80;4.57;;;;;;;12.51;100.00;101846.31;4962112;28;20503;-72
2023/05/14 00:27:23;;;;;;;7.90;4.77;;;;;;;11.89;100.00;101789.19;4956871;28;20983;-71
2023/05/14 00:29:48;;;;;;;9.13;4.00;;;;;;;12.27;100.00;101794.47;4957749;28;20193;-72
2023/05/14 00:32:13;;;;;;;6.63;3.77;;;;;;;12.22;100.00;101796.88;4954505;28;20187;-71
2023/05/14 00:34:39;;;;;;;6.40;3.70;;;;;;;11.74;100.00;101770.31;4952753;28;20277;-71
2023/05/14 00:37:04;;;;;;;9.60;4.80;;;;;;;12.09;100.00;101867.44;4958921;28;20202;-71
2023/05/14 00:39:30;;;;;;;7.80;3.83;;;;;;;12.43;100.00;101813.06;4956232;28;20238;-71
2023/05/14 00:41:55;;;;;;;7.90;4.73;;;;;;;12.74;100.00;101851.56;4956841;28;20182;-72
2023/05/14 00:44:20;;;;;;;5.77;3.63;;;;;;;12.22;100.00;101821.06;4956351;28;20565;-71
2023/05/14 00:46:46;;;;;;;9.33;3.93;;;;;;;12.53;100.00;101855.03;4959479;28;20632;-72
2023/05/14 00:49:12;;;;;;;7.83;4.27;;;;;;;12.41;100.00;101823.22;4955093;28;20188;-72
2023/05/14 00:51:38;;;;;;;7.83;3.90;;;;;;;12.61;100.00;101852.22;4961619;28;20197;-71
2023/05/14 00:54:05;;;;;;;7.33;3.93;;;;;;;12.26;100.00;101849.25;4961241;28;20179;-72
2023/05/14 00:56:30;;;;;;;12.33;4.70;;;;;;;12.53;100.00;101820.88;4960121;28;21121;-72
2023/05/14 00:58:56;;;;;;;9.13;4.20;;;;;;;12.41;100.00;101796.31;4963511;28;20529;-72
2023/05/14 01:01:21;;;;;;;6.80;4.37;;;;;;;11.82;100.00;101733.59;4966801;28;20179;-71
2023/05/14 01:03:47;;;;;;;7.60;4.00;;;;;;;12.00;100.00;101699.13;4965492;28;20297;-71
2023/05/14 01:06:31;;;;;;;8.00;4.60;;;;;;;12.42;100.00;101768.38;4964205;28;20289;-72
2023/05/14 01:09:18;;;;;;;6.87;4.87;;;;;;;12.43;100.00;101782.66;4963412;28;20183;-71
2023/05/14 01:12:13;;;;;;;8.83;4.50;;;;;;;12.61;100.00;101771.47;4957453;28;20452;-70
2023/05/14 01:15:09;;;;;;;6.70;4.57;;;;;;;12.21;100.00;101782.59;4957922;28;20878;-72
2023/05/14 01:17:41;;;;;;;8.30;4.97;;;;;;;12.42;100.00;101754.06;4958753;28;21056;-72
2023/05/14 01:20:08;;;;;;;7.17;4.07;;;;;;;11.42;100.00;101655.09;4960759;28;20498;-72
2023/05/14 01:22:33;;;;;;;12.03;5.10;;;;;;;12.46;100.00;101743.75;4958799;28;20445;-72
2023/05/14 01:24:58;;;;;;;8.37;3.90;;;;;;;12.43;100.00;101723.44;4958686;28;20448;-72
2023/05/14 01:27:34;;;;;;;10.10;4.90;;;;;;;12.09;100.00;101714.16;4960001;28;20686;-71
2023/05/14 01:30:24;;;;;;;9.77;4.97;;;;;;;12.31;100.00;101759.94;4958906;28;20189;-72
2023/05/14 01:32:55;;;;;;;9.87;4.57;;;;;;;11.55;100.00;101649.94;4958862;28;20469;-72
2023/05/14 01:35:27;;;;;;;8.10;4.77;;;;;;;12.28;100.00;101725.34;4959001;28;20438;-72
2023/05/14 01:38:05;;;;;;;10.23;4.27;;;;;;;12.27;100.00;101724.53;4974237;28;20461;-72
2023/05/14 01:40:32;;;;;;;8.90;5.10;;;;;;;11.97;100.00;101694.94;4959181;28;20477;-72
2023/05/14 01:42:59;;;;;;;7.80;4.40;;;;;;;12.20;100.00;101755.88;4958699;28;20969;-72
2023/05/14 01:45:25;;;;;;;8.80;5.20;;;;;;;11.40;100.00;101674.09;4956761;28;20445;-71
2023/05/14 01:47:51;;;;;;;7.27;4.73;;;;;;;11.19;100.00;101579.97;4971160;28;20549;-71
2023/05/14 01:50:17;;;;;;;8.10;5.33;;;;;;;11.81;100.00;101662.88;4957272;28;20469;-71
2023/05/14 01:52:43;;;;;;;8.67;4.73;;;;;;;12.26;100.00;101708.56;4959923;28;20484;-71
2023/05/14 01:55:09;;;;;;;12.80;5.20;;;;;;;11.70;100.00;101652.59;4960310;28;20886;-71
2023/05/14 01:57:34;;;;;;;9.17;5.10;;;;;;;12.31;100.00;101731.19;4962555;28;20230;-71
2023/05/14 02:00:00;;;;;;;7.63;4.87;;;;;;;12.04;100.00;101729.19;4958828;28;20489;-71
2023/05/14 02:02:25;;;;;;;11.83;6.20;;;;;;;11.50;100.00;101645.09;4959206;28;20269;-71
2023/05/14 02:04:52;;;;;;;8.07;5.00;;;;;;;11.38;100.00;101641.22;4958181;28;20196;-71
2023/05/14 02:07:17;;;;;;;9.40;4.80;;;;;;;11.91;100.00;101752.16;4957149;28;20237;-71
2023/05/14 02:09:42;;;;;;;9.33;5.30;;;;;;;11.35;100.00;101708.72;4960716;28;20480;-71
2023/05/14 02:12:08;;;;;;;8.90;4.93;;;;;;;10.63;100.00;101650.94;4962102;28;20663;-71
2023/05/14 02:14:34;;;;;;;6.30;5.03;;;;;;;11.75;100.00;101715.53;4978182;28;20187;-71
2023/05/14 02:16:59;;;;;;;7.90;4.90;;;;;;;11.71;100.00;101703.47;4963065;28;20215;-71
2023/05/14 02:19:25;;;;;;;9.10;5.00;;;;;;;11.60;100.00;101708.47;4963199;28;20174;-72
2023/05/14 02:21:50;;;;;;;8.37;5.40;;;;;;;12.00;100.00;101728.72;4960822;28;20193;-71
2023/05/14 02:24:15;;;;;;;10.77;5.33;;;;;;;11.75;100.00;101730.81;4962596;28;20595;-71
2023/05/14 02:26:41;;;;;;;8.50;4.87;;;;;;;12.05;100.00;101729.00;4962856;28;20217;-72
2023/05/14 02:29:07;;;;;;;6.97;5.20;;;;;;;11.89;100.00;101740.78;4960624;28;20179;-71
2023/05/14 02:31:33;;;;;;;9.33;5.97;;;;;;;11.71;100.00;101719.59;4962724;28;20556;-72
2023/05/14 02:34:00;;;;;;;8.37;5.70;;;;;;;11.98;100.00;101699.34;4962494;28;20454;-71
2023/05/14 02:36:25;;;;;;;7.20;5.60;;;;;;;11.21;100.00;101637.03;4962555;28;20203;-71
2023/05/14 02:38:50;;;;;;;8.80;6.40;;;;;;;11.59;100.00;101647.69;4961763;28;20433;-72
2023/05/14 02:41:16;;;;;;;11.33;6.20;;;;;;;11.91;100.00;101678.75;4963298;28;20178;-73
2023/05/14 02:43:41;;;;;;;12.90;6.27;;;;;;;12.08;100.00;101701.72;4962642;28;20233;-72
2023/05/14 02:46:07;;;;;;;9.80;5.90;;;;;;;11.51;100.00;101627.97;4961678;28;20199;-72
2023/05/14 02:48:32;;;;;;;11.40;5.63;;;;;;;12.12;100.00;101684.22;4962715;28;20199;-73
2023/05/14 02:50:57;;;;;;;9.03;5.60;;;;;;;11.69;100.00;101675.97;4962356;28;20182;-73
2023/05/14 02:53:23;;;;;;;8.60;5.40;;;;;;;11.62;100.00;101602.47;4958270;28;21033;-73
2023/05/14 02:55:48;;;;;;;9.30;5.40;;;;;;;11.13;100.00;101604.88;4957535;28;20198;-70
2023/05/14 02:58:14;;;;;;;9.10;5.67;;;;;;;11.81;100.00;101699.69;4961478;28;20236;-70
2023/05/14 03:00:39;;;;;;;10.53;6.33;;;;;;;12.14;100.00;101706.34;4959050;28;20194;-70
2023/05/14 03:03:05;;;;;;;8.87;5.63;;;;;;;12.05;100.00;101728.16;4960384;28;20197;-70
2023/05/14 03:05:30;;;;;;;8.07;6.43;;;;;;;11.84;100.00;101723.50;4957656;28;20191;-70
2023/05/14 03:07:55;;;;;;;5.73;5.13;;;;;;;11.30;100.00;101638.59;4959880;28;20244;-70
2023/05/14 03:10:21;;;;;;;8.10;5.33;;;;;;;11.08;100.00;101641.19;4956473;28;20187;-70
2023/05/14 03:12:46;;;;;;;12.60;5.87;;;;;;;11.20;100.00;101644.25;4957138;28;20190;-70
2023/05/14 03:15:12;;;;;;;7.77;5.60;;;;;;;11.64;100.00;101667.63;4956795;28;20189;-70
2023/05/14 03:17:37;;;;;;;9.53;5.90;;;;;;;11.53;100.00;101636.66;4959095;28;20564;-70
2023/05/14 03:20:03;;;;;;;8.80;5.97;;;;;;;11.67;100.00;101642.22;4959345;28;20711;-70
2023/05/14 03:22:28;;;;;;;7.40;5.83;;;;;;;11.13;100.00;101565.44;4958212;28;20196;-71
2023/05/14 03:24:54;;;;;;;8.07;6.00;;;;;;;11.90;100.00;101710.19;4957001;28;20530;-70
2023/05/14 03:27:19;;;;;;;11.47;6.33;;;;;;;11.83;100.00;101717.31;4957940;28;20734;-70
2023/05/14 03:29:45;;;;;;;8.97;5.73;;;;;;;11.65;100.00;101663.91;4970125;28;20194;-71
2023/05/14 03:32:10;;;;;;;7.40;6.43;;;;;;;11.17;100.00;101641.09;4959279;28;20597;-71
2023/05/14 03:34:36;;;;;;;9.13;6.13;;;;;;;11.47;100.00;101629.34;4956281;28;20191;-71
2023/05/14 03:37:01;;;;;;;9.97;6.07;;;;;;;11.19;100.00;101588.03;4954024;28;20415;-71
2023/05/14 03:39:27;;;;;;;10.63;6.30;;;;;;;11.45;100.00;101623.31;4963632;28;20189;-71
2023/05/14 03:41:52;;;;;;;9.97;6.20;;;;;;;11.27;100.00;101652.41;4958659;28;20266;-71
2023/05/14 03:44:18;;;;;;;9.73;6.50;;;;;;;11.20;100.00;101657.69;4956110;28;20334;-71
2023/05/14 03:46:43;;;;;;;8.10;5.90;;;;;;;11.56;100.00;101640.00;4958882;28;20271;-71
2023/05/14 03:49:08;;;;;;;11.23;6.43;;;;;;;11.65;100.00;101645.09;4957708;28;20257;-71
2023/05/14 03:51:34;;;;;;;7.43;6.63;;;;;;;11.91;100.00;101657.25;4956935;28;20191;-71
2023/05/14 03:54:00;;;;;;;11.10;6.10;;;;;;;12.03;100.00;101665.66;4969212;28;20191;-71
2023/05/14 03:56:25;;;;;;;9.00;6.47;;;;;;;11.45;100.00;101615.25;4957401;28;20198;-71
2023/05/14 03:58:51;;;;;;;10.60;6.40;;;;;;;11.35;100.00;101641.56;4962108;28;20190;-70
2023/05/14 04:01:17;;;;;;;9.00;6.10;;;;;;;11.16;100.00;101634.88;4961246;28;20178;-71
2023/05/14 04:03:42;;;;;;;8.07;6.47;;;;;;;11.70;100.00;101642.69;4961900;28;20531;-70
2023/05/14 04:06:07;;;;;;;11.83;6.33;;;;;;;11.45;100.00;101641.28;4960619;28;20207;-71
2023/05/14 04:08:33;;;;;;;9.70;6.50;;;;;;;11.50;100.00;101631.66;4955527;28;20218;-71
2023/05/14 04:10:58;;;;;;;13.23;7.40;;;;;;;11.66;100.00;101608.31;4962430;28;20597;-71
2023/05/14 04:13:24;;;;;;;11.90;7.70;;;;;;;10.72;100.00;101520.25;4962713;28;20190;-71
2023/05/14 04:15:49;;;;;;;10.93;7.60;;;;;;;11.49;100.00;101611.19;4963286;28;20253;-71
2023/05/14 04:18:16;;;;;;;13.33;7.13;;;;;;;11.24;100.00;101521.19;4961126;28;20234;-71
2023/05/14 04:20:41;;;;;;;13.67;7.23;;;;;;;11.55;100.00;101577.38;4960845;28;20175;-71
2023/05/14 04:23:07;;;;;;;9.70;6.80;;;;;;;11.19;100.00;101508.31;4962520;28;20524;-71
2023/05/14 04:25:32;;;;;;;11.60;7.43;;;;;;;11.77;100.00;101583.63;4961041;28;20233;-71
2023/05/14 04:27:57;;;;;;;12.37;7.20;;;;;;;11.85;100.00;101613.13;4960297;28;20230;-71
2023/05/14 04:30:23;;;;;;;10.70;7.37;;;;;;;11.76;100.00;101592.72;4962080;28;20652;-71
2023/05/14 04:32:48;;;;;;;7.80;7.00;;;;;;;11.42;100.00;101535.03;4963899;28;20186;-71
2023/05/14 04:35:14;;;;;;;9.17;7.50;;;;;;;11.64;100.00;101572.72;4963775;28;20601;-71
2023/05/14 04:37:40;;;;;;;10.13;7.70;;;;;;;11.68;100.00;101601.72;4960514;28;20283;-71
2023/05/14 04:40:07;;;;;;;8.87;6.93;;;;;;;11.52;100.00;101607.31;4956878;28;20187;-71
2023/05/14 04:42:33;;;;;;;10.47;7.70;;;;;;;10.90;100.00;101494.91;4959079;28;20599;-71
2023/05/14 04:44:58;;;;;;;13.00;9.03;;;;;;;11.58;100.00;101542.06;4961388;28;21818;-71
2023/05/14 04:47:23;;;;;;;10.70;8.20;;;;;;;11.76;100.00;101550.56;4964589;28;20754;-71
2023/05/14 04:49:49;;;;;;;11.23;7.93;;;;;;;11.53;100.00;101488.88;4958383;28;20663;-72
2023/05/14 04:52:15;;;;;;;8.73;7.80;;;;;;;12.26;100.00;101576.75;4957964;28;20671;-72
2023/05/14 04:54:40;;;;;;;11.23;7.97;;;;;;;11.97;100.00;101598.16;4961045;28;20600;-72
2023/05/14 04:57:06;;;;;;;9.93;8.23;;;;;;;11.93;100.00;101610.34;4959134;28;20269;-72
2023/05/14 04:59:31;;;;;;;13.00;8.20;;;;;;;11.72;100.00;101584.22;4963988;28;20265;-72
2023/05/14 05:01:57;;;;;;;11.70;8.23;;;;;;;11.67;100.00;101594.69;4956682;28;20241;-72
2023/05/14 05:04:23;;;;;;;10.40;8.00;;;;;;;12.11;100.00;101579.50;4959067;28;20214;-72
2023/05/14 05:06:49;;;;;;;17.13;9.20;;;;;;;12.06;100.00;101598.88;4956199;28;20711;-72
2023/05/14 05:09:15;;;;;;;15.70;8.60;;;;;;;11.08;100.00;101449.72;4957239;28;20446;-72
2023/05/14 05:11:41;;;;;;;11.57;7.87;;;;;;;12.25;100.00;101597.44;4959881;28;20445;-72
2023/05/14 05:14:06;;;;;;;14.10;7.40;;;;;;;11.56;100.00;101535.22;4963045;28;20445;-71
2023/05/14 05:16:32;;;;;;;11.03;6.90;;;;;;;12.18;100.00;101620.75;4959052;28;20266;-72
2023/05/14 05:18:57;;;;;;;10.90;7.70;;;;;;;11.59;100.00;101537.53;4961080;28;20187;-72
2023/05/14 05:21:23;;;;;;;13.63;7.33;;;;;;;12.39;100.00;101617.25;4960192;28;20245;-71
2023/05/14 05:23:48;;;;;;;9.90;6.10;;;;;;;12.37;100.00;101635.44;4958265;28;20625;-71
2023/05/14 05:26:13;;;;;;;12.83;6.50;;;;;;;12.08;100.00;101566.44;4959066;28;20588;-71
2023/05/14 05:28:39;;;;;;;12.23;5.83;;;;;;;12.47;100.00;101656.63;4954676;28;20190;-71
2023/05/14 05:31:05;;;;;;;12.93;7.30;;;;;;;12.31;100.00;101650.47;4956545;28;20288;-71
2023/05/14 05:33:30;;;;;;;10.03;6.00;;;;;;;12.24;100.00;101617.31;4952925;28;20190;-71
2023/05/14 05:35:55;;;;;;;9.70;6.03;;;;;;;12.07;100.00;101638.22;4959376;28;20191;-71
2023/05/14 05:38:21;;;;;;;11.93;7.47;;;;;;;12.50;100.00;101629.34;4958995;28;20687;-72
2023/05/14 05:40:47;;;;;;;9.57;6.67;;;;;;;12.46;100.00;101582.31;4961506;28;20286;-71
2023/05/14 05:43:14;;;;;;;8.30;5.37;;;;;;;12.46;100.00;101614.63;4960889;28;21130;-71
2023/05/14 05:45:40;;;;;;;12.40;6.40;;;;;;;12.40;100.00;101608.97;4957310;28;20446;-71
2023/05/14 05:48:05;;;;;;;12.00;6.30;;;;;;;12.53;100.00;101599.38;4960898;28;20576;-71
2023/05/14 05:50:31;;;;;;;9.87;5.90;;;;;;;12.48;100.00;101617.97;4956315;28;20446;-71
2023/05/14 05:52:58;;;;;;;11.30;6.57;;;;;;;12.14;100.00;101565.66;4951571;28;20189;-72
2023/05/14 05:55:24;;;;;;;8.77;5.53;;;;;;;12.58;100.00;101587.00;4956590;28;20277;-72
2023/05/14 05:57:49;;;;;;;14.07;6.57;;;;;;;12.71;100.00;101612.38;4956222;28;20468;-72
2023/05/14 06:00:15;;;;;;;7.53;5.50;;;;;;;12.82;100.00;101630.69;4957831;28;20435;-72
2023/05/14 06:02:42;;;;;;;5.93;5.33;;;;;;;12.08;100.00;101543.06;4955791;28;20190;-71
2023/05/14 06:05:08;;;;;;;14.10;7.57;;;;;;;11.84;100.00;101497.72;4956768;28;21033;-72
2023/05/14 06:07:34;;;;;;;8.83;5.53;;;;;;;12.36;100.00;101550.38;4958292;28;20479;-72
2023/05/14 06:10:00;;;;;;;8.33;5.93;;;;;;;12.81;100.00;101615.53;4957072;28;21483;-72
2023/05/14 06:12:25;;;;;;;8.13;6.33;;;;;;;12.02;100.00;101498.13;4955074;28;20186;-72
2023/05/14 06:14:51;;;;;;;8.60;5.70;;;;;;;12.71;100.00;101588.97;4954740;28;20193;-72
2023/05/14 06:17:16;;;;;;;8.57;5.37;;;;;;;12.56;100.00;101572.09;4954583;28;20205;-72
2023/05/14 06:19:42;;;;;;;9.00;5.67;;;;;;;12.85;100.00;101611.44;4955321;28;20242;-71
2023/05/14 06:22:07;;;;;;;12.63;5.77;;;;;;;12.72;100.00;101641.78;4960053;28;20215;-71
2023/05/14 06:24:33;;;;;;;12.83;5.60;;;;;;;12.86;100.00;101627.41;4955600;28;20190;-72
2023/05/14 06:26:58;;;;;;;10.83;5.33;;;;;;;13.03;100.00;101587.56;4956336;28;20226;-72
2023/05/14 06:29:24;;;;;;;8.13;6.03;;;;;;;12.56;100.00;101537.94;4970340;28;20194;-71
2023/05/14 06:31:49;;;;;;;6.50;5.23;;;;;;;12.25;100.00;101465.66;4955789;28;20210;-72
2023/05/14 06:34:15;;;;;;;10.80;6.40;;;;;;;13.21;100.00;101587.03;4954835;28;20492;-72
2023/05/14 06:36:40;;;;;;;8.97;5.27;;;;;;;13.35;100.00;101563.75;4951901;28;20298;-72
2023/05/14 06:39:06;;;;;;;7.93;5.67;;;;;;;12.98;100.00;101511.91;4954630;28;20644;-72
2023/05/14 06:41:31;;;;;;;8.10;5.97;;;;;;;13.43;100.00;101579.75;4954785;28;20559;-73
2023/05/14 06:43:57;;;;;;;11.97;6.23;;;;;;;12.96;100.00;101473.59;4957902;28;20190;-71
2023/05/14 06:46:22;;;;;;;11.23;6.67;;;;;;;13.47;100.00;101542.44;4966741;28;20486;-72
2023/05/14 06:48:48;;;;;;;15.80;5.33;;;;;;;13.56;100.00;101581.66;4957199;28;20191;-71
2023/05/14 06:51:13;;;;;;;7.07;5.60;;;;;;;13.63;100.00;101562.84;4959541;28;20194;-71
2023/05/14 06:53:39;;;;;;;9.97;5.70;;;;;;;13.07;100.00;101456.00;4957027;28;20230;-71
2023/05/14 06:56:05;;;;;;;11.23;6.10;;;;;;;13.81;100.00;101552.31;4949069;28;20223;-71
2023/05/14 06:58:30;;;;;;;10.77;6.03;;;;;;;13.76;100.00;101561.00;4959831;28;20488;-71
2023/05/14 07:00:57;;;;;;;6.83;5.93;;;;;;;13.54;100.00;101505.59;4954962;28;20269;-72
2023/05/14 07:03:22;;;;;;;8.40;6.40;;;;;;;13.87;100.00;101535.31;4957598;28;20297;-71
2023/05/14 07:05:48;;;;;;;9.80;6.10;;;;;;;13.91;100.00;101570.81;4955615;28;20998;-72
2023/05/14 07:08:14;;;;;;;7.60;5.53;;;;;;;13.61;100.00;101503.72;4952854;28;20230;-72
2023/05/14 07:10:39;;;;;;;10.03;6.50;;;;;;;13.35;100.00;101469.44;4960424;28;21041;-69
2023/05/14 07:13:05;;;;;;;8.37;6.20;;;;;;;13.86;100.00;101554.41;4961041;28;20206;-72
2023/05/14 07:15:31;;;;;;;10.90;6.20;;;;;;;14.06;100.00;101568.78;4962645;28;20270;-72
2023/05/14 07:17:56;;;;;;;8.40;6.50;;;;;;;13.43;100.00;101480.03;4957984;28;20209;-72
2023/05/14 07:20:22;;;;;;;9.23;6.83;;;;;;;14.16;100.00;101601.59;4959059;28;20501;-72
2023/05/14 07:22:48;;;;;;;9.40;7.20;;;;;;;14.09;100.00;101603.44;4953910;28;20242;-71
2023/05/14 07:25:14;;;;;;;6.30;5.70;;;;;;;14.24;100.00;101631.09;4954054;28;20545;-70
2023/05/14 07:27:40;;;;;;;9.47;6.00;;;;;;;14.25;100.00;101656.19;4953823;28;20979;-73
2023/05/14 07:30:06;;;;;;;9.70;6.93;;;;;;;14.23;100.00;101686.09;4954573;28;20194;-71
2023/05/14 07:32:32;;;;;;;11.10;6.83;;;;;;;14.30;100.00;101721.19;4954019;28;20230;-71
2023/05/14 07:34:57;;;;;;;10.50;6.73;;;;;;;14.27;100.00;101777.44;4956032;28;20828;-71
2023/05/14 07:37:24;;;;;;;8.43;6.87;;;;;;;14.25;100.00;101791.94;4957430;28;20214;-71
2023/05/14 07:39:50;;;;;;;7.40;6.53;;;;;;;14.37;100.00;101843.47;4957501;28;20202;-71
2023/05/14 07:42:16;;;;;;;8.30;6.97;;;;;;;14.52;100.00;101877.66;4957056;28;20984;-71
2023/05/14 07:44:41;;;;;;;9.50;7.50;;;;;;;13.96;100.00;101824.56;4962219;28;20442;-71
2023/05/14 07:47:07;;;;;;;8.60;6.30;;;;;;;14.63;100.00;101953.53;4963060;28;20228;-71
2023/05/14 07:49:33;;;;;;;9.03;8.13;;;;;;;14.60;100.00;101980.91;4962234;28;20249;-71
2023/05/14 07:51:58;;;;;;;7.87;6.20;;;;;;;14.75;100.00;102031.28;4961228;28;20559;-72
2023/05/14 07:54:24;;;;;;;8.53;7.63;;;;;;;14.76;100.00;102082.41;4957601;28;20201;-71
2023/05/14 07:56:49;;;;;;;8.40;7.40;;;;;;;14.82;100.00;102075.41;4958258;28;20583;-72
2023/05/14 07:59:15;;;;;;;8.33;6.83;;;;;;;14.96;100.00;102089.84;4960493;28;20220;-71
2023/05/14 08:01:40;;;;;;;8.07;7.37;;;;;;;14.95;100.00;102124.09;4959146;28;20719;-70
2023/05/14 08:04:06;;;;;;;7.33;6.60;;;;;;;14.83;100.00;102101.38;4959422;28;20218;-72
2023/05/14 08:06:32;;;;;;;9.13;6.17;;;;;;;14.85;100.00;102067.72;4963830;28;20218;-71
2023/05/14 08:08:58;;;;;;;7.33;6.63;;;;;;;14.58;100.00;102046.94;4965165;28;20438;-71
2023/05/14 08:11:23;;;;;;;7.80;6.90;;;;;;;14.85;100.00;102129.03;4965774;28;20861;-71
2023/05/14 08:13:49;;;;;;;7.03;6.33;;;;;;;14.94;100.00;102149.47;4964827;28;20262;-71
2023/05/14 08:16:14;;;;;;;8.00;6.70;;;;;;;14.78;100.00;102106.50;4963736;28;20655;-71
2023/05/14 08:18:40;;;;;;;7.37;6.30;;;;;;;15.40;100.00;102213.84;4958671;28;20195;-72
2023/05/14 08:21:06;;;;;;;6.77;6.17;;;;;;;15.46;100.00;102225.72;4954984;28;20201;-76
2023/05/14 08:23:33;;;;;;;7.17;6.47;;;;;;;15.43;100.00;102196.38;4952427;28;20198;-76
2023/05/14 08:25:59;;;;;;;8.80;6.50;;;;;;;15.67;100.00;102231.06;4945618;28;20283;-78
2023/05/14 08:28:24;;;;;;;6.17;5.63;;;;;;;15.57;100.00;102217.06;4950079;28;20471;-76
2023/05/14 08:30:50;;;;;;;6.40;5.70;;;;;;;15.75;100.00;102276.91;4946806;28;20560;-76
2023/05/14 08:33:16;;;;;;;9.67;6.37;;;;;;;15.20;100.00;102210.97;4946708;28;20206;-78
2023/05/14 08:35:42;;;;;;;5.80;5.23;;;;;;;15.51;100.00;102226.81;4951394;28;20190;-77
2023/05/14 08:38:07;;;;;;;6.70;6.10;;;;;;;15.44;100.00;102230.50;4941518;28;20476;-75
2023/05/14 08:40:33;;;;;;;7.33;5.20;;;;;;;15.30;100.00;102187.16;4947228;28;20191;-77
2023/05/14 08:42:59;;;;;;;7.53;5.10;;;;;;;15.94;100.00;102275.38;4942727;28;20207;-73
2023/05/14 08:45:33;;;;;;;5.83;5.17;;;;;;;15.98;100.00;102268.53;4945446;28;20445;-71
2023/05/14 08:48:04;;;;;;;6.07;5.00;;;;;;;15.85;100.00;102235.13;4957259;28;20478;-73
2023/05/14 08:50:30;;;;;;;7.80;4.87;;;;;;;16.07;100.00;102262.94;4949507;28;20532;-73
2023/05/14 08:52:56;;;;;;;5.50;5.00;;;;;;;15.74;100.00;102209.50;4952867;28;20445;-74
2023/05/14 08:55:22;;;;;;;5.80;5.30;;;;;;;15.95;100.00;102217.50;4952054;28;20453;-72
2023/05/14 08:57:48;;;;;;;5.37;4.80;;;;;;;16.31;100.00;102254.31;4960414;28;20252;-73
2023/05/14 09:00:14;;;;;;;8.03;6.90;;;;;;;16.32;100.00;102237.03;4953687;28;20454;-73
2023/05/14 09:02:41;;;;;;;6.60;5.30;;;;;;;16.32;100.00;102228.91;4956672;28;20182;-73
2023/05/14 09:05:08;;;;;;;5.57;5.07;;;;;;;16.30;100.00;102238.28;4952655;28;20552;-73
2023/05/14 09:07:34;;;;;;;6.70;5.77;;;;;;;16.13;100.00;102191.78;4953337;28;20481;-73
2023/05/14 09:10:00;;;;;;;8.80;7.00;;;;;;;16.42;100.00;102244.78;4948351;28;20441;-73
2023/05/14 09:12:26;;;;;;;5.57;5.07;;;;;;;16.58;100.00;102232.75;4941084;28;20466;-74
2023/05/14 09:14:52;;;;;;;5.60;5.10;;;;;;;16.38;100.00;102217.28;4937949;28;20478;-74
2023/05/14 09:17:18;;;;;;;6.03;5.40;;;;;;;16.58;100.00;102230.88;4950415;28;20676;-75
2023/05/14 09:19:47;;;;;;;4.87;4.37;;;;;;;16.61;100.00;102222.31;4952948;28;20190;-75
2023/05/14 09:22:15;;;;;;;7.70;5.90;;;;;;;16.64;100.00;102221.09;4946484;28;20473;-73
2023/05/14 09:24:41;;;;;;;5.43;4.90;;;;;;;16.62;100.00;102186.06;4951144;28;20489;-75
2023/05/14 09:27:08;;;;;;;7.27;5.10;;;;;;;16.91;100.00;102208.44;4954548;28;20509;-75
2023/05/14 09:29:34;;;;;;;5.97;4.60;;;;;;;16.92;100.00;102199.25;4947504;28;20986;-74
2023/05/14 09:32:04;;;;;;;5.30;4.40;;;;;;;16.53;100.00;102091.69;4956290;28;20449;-74
2023/05/14 09:34:31;;;;;;;4.20;3.90;;;;;;;16.76;100.00;102112.94;4962278;28;20651;-73
2023/05/14 09:36:58;;;;;;;4.17;3.77;;;;;;;16.78;100.00;102136.09;4963511;28;20439;-74
2023/05/14 09:39:25;;;;;;;4.10;3.67;;;;;;;16.64;100.00;102126.28;4963667;28;20434;-74
2023/05/14 09:41:51;;;;;;;4.50;4.10;;;;;;;16.61;100.00;102102.31;4963672;28;20908;-76
2023/05/14 09:44:17;;;;;;;3.90;3.23;;;;;;;16.78;100.00;102103.59;4958846;28;20446;-75
2023/05/14 09:46:43;;;;;;;4.80;4.00;;;;;;;17.32;100.00;102126.84;4952864;28;20292;-76
2023/05/14 09:49:09;;;;;;;3.50;3.20;;;;;;;17.32;100.00;102113.28;4952013;28;20446;-77
2023/05/14 09:51:36;;;;;;;5.27;3.87;;;;;;;17.07;100.00;101949.69;4951820;28;20445;-76
2023/05/14 09:54:03;;;;;;;7.03;4.80;;;;;;;16.94;100.00;101905.31;4969610;28;20592;-77
2023/05/14 09:56:29;;;;;;;5.13;3.60;;;;;;;17.55;100.00;101958.16;4956832;28;20457;-77
2023/05/14 09:58:55;;;;;;;3.60;3.27;;;;;;;17.58;100.00;101935.19;4960716;28;20500;-76
2023/05/14 10:01:21;;;;;;;8.90;4.13;;;;;;;17.26;100.00;101804.22;4949993;28;20249;-73
2023/05/14 10:03:47;;;;;;;6.33;4.10;;;;;;;17.01;100.00;101737.25;4958752;28;20558;-74
2023/05/14 10:06:17;;;;;;;7.70;3.50;;;;;;;17.75;100.00;92583.41;4952185;28;20469;-74
2023/05/14 10:08:44;;;;;;;4.83;4.17;;;;;;;17.27;100.00;101748.91;4958603;28;20930;-74
2023/05/14 10:11:19;;;;;;;6.67;4.03;;;;;;;17.91;100.00;101837.31;4959150;28;20447;-73
2023/05/14 10:14:01;;;;;;;7.27;4.20;;;;;;;17.56;100.00;101766.41;4957948;28;20441;-73
2023/05/14 10:16:30;;;;;;;6.70;4.47;;;;;;;17.91;100.00;101826.44;4954589;28;20520;-74
2023/05/14 10:19:10;;;;;;;5.83;3.70;;;;;;;17.59;100.00;101758.66;4958624;28;20443;-74
2023/05/14 10:21:39;;;;;;;4.87;3.80;;;;;;;18.43;100.00;101812.53;4954677;28;20450;-74
2023/05/14 10:24:06;;;;;;;4.10;3.70;;;;;;;17.84;100.00;101744.25;4957546;28;20960;-73
2023/05/14 10:26:36;;;;;;;4.67;3.90;;;;;;;17.76;100.00;101777.91;4956521;28;20847;-74
2023/05/14 10:29:02;;;;;;;4.07;3.50;;;;;;;17.98;100.00;101805.47;4959037;28;20445;-74
2023/05/14 10:31:47;;;;;;;3.47;3.17;;;;;;;18.16;100.00;101807.38;4958497;28;20464;-73
2023/05/14 10:34:32;;;;;;;4.50;3.23;;;;;;;18.32;100.00;101799.69;4952187;28;20186;-73
2023/05/14 10:37:01;;;;;;;4.37;3.40;;;;;;;18.07;100.00;101749.00;4953277;28;20544;-73
2023/05/14 10:39:42;;;;;;;4.83;4.43;;;;;;;18.18;100.00;101813.41;4951177;28;20444;-75
2023/05/14 10:42:15;;;;;;;4.70;3.90;;;;;;;18.58;100.00;101793.13;4947692;28;20533;-72
2023/05/14 10:44:57;;;;;;;4.03;3.73;;;;;;;18.60;100.00;101790.97;4961977;28;20699;-73
2023/05/14 10:47:24;;;;;;;4.30;3.50;;;;;;;18.26;100.00;101747.13;4965137;28;20485;-73
2023/05/14 10:49:53;;;;;;;3.80;3.50;;;;;;;18.64;100.00;101787.59;4962433;28;20422;-72
2023/05/14 10:52:19;;;;;;;4.13;3.80;;;;;;;18.16;100.00;101741.38;4959810;28;20450;-73
2023/05/14 10:54:55;;;;;;;3.53;3.23;;;;;;;18.48;100.00;101772.72;4960280;28;20432;-74
2023/05/14 10:57:22;;;;;;;4.70;3.60;;;;;;;18.62;100.00;101769.84;4953702;28;21762;-74
2023/05/14 10:59:53;;;;;;;4.07;2.80;;;;;;;18.06;100.00;101687.63;4955092;28;20437;-74
2023/05/14 11:02:45;;;;;;;4.60;3.37;;;;;;;18.11;100.00;101698.66;4963246;28;20446;-74
2023/05/14 11:05:14;;;;;;;3.80;3.40;;;;;;;18.42;100.00;101760.06;4958732;28;20460;-73
2023/05/14 11:07:48;;;;;;;4.10;3.00;;;;;;;18.56;100.00;101771.59;4963345;28;20473;-73
2023/05/14 11:10:18;;;;;;;4.30;3.77;;;;;;;18.65;100.00;101786.50;4962569;28;20429;-72
2023/05/14 11:12:45;;;;;;;3.60;3.30;;;;;;;18.60;100.00;101785.53;4959697;28;20867;-73